Playa Vista, CA (90094)

8:49 PM PDT on September 21, 2014 (GMT -0700)
Paseo Del Rey Elementary | Change Station
CLOSE
Current Station
Personal Weather Station
Location: Playa Del Rey, CA
Elevation: 138 ft
Nearby Weather Stations

Elev 138 ft 33.96 °N, 118.43 °W | Updated 3 minutes ago

Clear
Clear
67.1 °F
Feels Like 67.1 °F
N
10.0
Wind Variable Wind from SSW
Gusts 10.0 mph

Today
High -- | Low -- °F
--% Chance of Precip.
Yesterday
High -- | Low -- °F
Precip. -- in
6:41 AM 6:51 PM
Waning Crescent, 4% visible
Pressure 29.94 in
Visibility 10.0 miles
Clouds Few 1500 ft
Dew Point 63 °F
Humidity 88%
Rainfall 0.00 in
Snow Depth 1 in , 1 in , 0 in
UV 0 out of 12
Pollen 7.20 out of 12
Ozone Good
Flu Activity Not available.
METAR KLAX 220253Z 27011KT 10SM FEW015 20/17 A2994 RMK AO2 SLP136 T02000167 53002

More Conditions Fewer Conditions

Pressure 29.94 in
Visibility 10.0 miles
Clouds Few 1500 ft
Dew Point 63 °F
Humidity 88%
Rainfall 0.00 in
Snow Depth 1 in , 1 in , 0 in
UV 0 out of 12
Pollen 7.20 out of 12
Ozone Good
Flu Activity Not available.
METAR KLAX 220253Z 27011KT 10SM FEW015 20/17 A2994 RMK AO2 SLP136 T02000167 53002

More Conditions Fewer Conditions

10-Day Weather Forecast

Almanac

Astronomy

Sep. 21, 2014 Rise Set
Actual Time 6:41 AM PDT 6:51 PM PDT
Civil Twilight 6:16 AM PDT 7:16 PM PDT
Nautical Twilight 5:47 AM PDT 7:45 PM PDT
Astronomical Twilight 5:17 AM PDT 8:15 PM PDT
Moon 4:24 AM PDT (9/21) 5:26 PM PDT (9/21)
Length of Visible Light 13h 00m
Length of Day
12h 10m
Tomorrow will be 2m 6s shorter.
Waning Crescent, 4% of the Moon is Illuminated
Today
Waning Crescent
Sep 24
New
Oct 1
First Quarter
Oct 8
Full
Oct 15
Last Quarter

Today's Extremes

State Highs State Lows

Community

WunderPhotos

Upload Photos

1,755,382 photos uploaded!

Nearby

Air Quality

  Air Quality AQ Index Pollutant
Yesterday Good
OZONE
Current Good
OZONE
Monday Good
PM10
Monday Good
OZONE
Monday Good
CO
Monday Good
NO2

Snow Depth

Station Depth Elevation
Summit Meadow 1 in 9122 ft
Burnside Lake 1 in 8139 ft
Monitor Pass 0 in 8350 ft
Spratt Creek 0 in 6200 ft
Adin Mountain 0 in 6200 ft

Earthquake Activity

City Distance Mag. Time & Date
Aguanga, California 101 miles 2.5 1:38 AM PDT
2014-09-19
Minimum magnitude displayed is 2.5.

Coastal Water Temperatures

Place Temperature
Santa Monica Pier 70.0 °F
Los Angeles, CA 66.9 °F
La Jolla, CA 72.0 °F

Nearby Weather Stations